Time;durP1;ratioP1;P1;durP2;ratioP2;P2;SDS_P1;SDS_P2;PMS_P1;PMS_P2;Temp;Humidity;BMP_temperature;BMP_pressure;BME280_temperature;BME280_humidity;BME280_pressure;Samples;Min_cycle;Max_cycle;Signal;HPM_P1;HPM_P2
2022/04/17 00:01:30;;;;;;;38.33;19.73;;;8.90;99.90;;;;;;5026746;28;20065;-64
2022/04/17 00:03:55;;;;;;;38.75;20.90;;;8.80;99.90;;;;;;5020119;28;20056;-65
2022/04/17 00:06:21;;;;;;;38.92;20.20;;;8.80;99.90;;;;;;5008321;28;20034;-65
2022/04/17 00:08:46;;;;;;;39.42;20.00;;;8.80;99.90;;;;;;5010082;28;20378;-65
2022/04/17 00:11:12;;;;;;;42.45;20.90;;;8.80;99.90;;;;;;5009850;28;20393;-65
2022/04/17 00:13:38;;;;;;;41.53;21.92;;;8.80;99.90;;;;;;5009844;28;20033;-64
2022/04/17 00:16:04;;;;;;;40.55;20.58;;;8.80;99.90;;;;;;5010162;28;20026;-64
2022/04/17 00:18:29;;;;;;;42.58;22.65;;;8.80;99.90;;;;;;5011960;28;20034;-65
2022/04/17 00:20:55;;;;;;;40.28;21.77;;;8.80;99.90;;;;;;5009786;28;20093;-64
2022/04/17 00:23:21;;;;;;;39.70;20.15;;;8.80;99.90;;;;;;5008210;28;20028;-65
2022/04/17 00:25:47;;;;;;;37.72;19.83;;;8.80;99.90;;;;;;5006796;28;20056;-65
2022/04/17 00:28:13;;;;;;;42.75;21.67;;;8.70;99.90;;;;;;5007739;28;20026;-64
2022/04/17 00:30:38;;;;;;;43.45;21.10;;;8.70;99.90;;;;;;5009761;28;20034;-65
2022/04/17 00:33:04;;;;;;;40.80;21.10;;;8.60;99.90;;;;;;5008564;28;20022;-64
2022/04/17 00:35:30;;;;;;;43.80;21.45;;;8.50;99.90;;;;;;5009691;28;20026;-65
2022/04/17 00:37:55;;;;;;;42.65;21.63;;;8.40;99.90;;;;;;5009576;28;20022;-64
2022/04/17 00:40:21;;;;;;;48.70;22.58;;;8.40;99.90;;;;;;5010214;28;20037;-65
2022/04/17 00:42:47;;;;;;;45.25;22.23;;;8.40;99.90;;;;;;5009619;28;20037;-65
2022/04/17 00:45:14;;;;;;;46.13;21.98;;;8.40;99.90;;;;;;5010116;28;20025;-65
2022/04/17 00:47:40;;;;;;;44.13;21.58;;;8.30;99.90;;;;;;5013174;28;20025;-64
2022/04/17 00:50:07;;;;;;;40.83;21.23;;;8.30;99.90;;;;;;5013307;28;20100;-64
2022/04/17 00:52:33;;;;;;;45.55;21.23;;;8.40;99.90;;;;;;5013537;28;20061;-64
2022/04/17 00:55:01;;;;;;;46.78;21.80;;;8.30;99.90;;;;;;5013009;28;20531;-66
2022/04/17 00:57:27;;;;;;;43.67;21.23;;;8.30;99.90;;;;;;5013342;28;20065;-64
2022/04/17 00:59:53;;;;;;;44.80;22.23;;;8.20;99.90;;;;;;5013267;28;20109;-65
2022/04/17 01:02:19;;;;;;;47.38;21.92;;;8.20;99.90;;;;;;5013628;28;20109;-64
2022/04/17 01:04:45;;;;;;;46.08;22.27;;;8.20;99.90;;;;;;5010199;28;20034;-65
2022/04/17 01:07:13;;;;;;;43.55;22.25;;;8.10;99.90;;;;;;5011055;28;20527;-64
2022/04/17 01:09:38;;;;;;;40.00;20.13;;;8.10;99.90;;;;;;5012818;28;20022;-64
2022/04/17 01:12:09;;;;;;;43.50;22.02;;;8.10;99.90;;;;;;5012874;28;20029;-65
2022/04/17 01:14:39;;;;;;;44.70;21.60;;;8.00;99.90;;;;;;5013217;28;20041;-65
2022/04/17 01:17:06;;;;;;;41.85;21.33;;;8.00;99.90;;;;;;5012876;28;20461;-65
2022/04/17 01:19:33;;;;;;;45.08;22.17;;;8.00;99.90;;;;;;5013108;28;20030;-64
2022/04/17 01:21:58;;;;;;;43.97;21.17;;;7.90;99.90;;;;;;5019682;28;20272;-65
2022/04/17 01:27:09;;;;;;;42.95;20.27;;;7.80;99.90;;;;;;5032487;28;20087;-65
2022/04/17 01:29:38;;;;;;;39.08;19.00;;;7.80;99.90;;;;;;5032437;28;20048;-65
2022/04/17 01:32:08;;;;;;;35.40;18.67;;;7.70;99.90;;;;;;5032326;28;20070;-65
2022/04/17 01:34:35;;;;;;;36.60;18.60;;;7.60;99.90;;;;;;5032336;28;20492;-65
2022/04/17 01:37:01;;;;;;;42.67;21.45;;;7.50;99.90;;;;;;5032076;28;20029;-66
2022/04/17 01:39:27;;;;;;;41.53;19.73;;;7.50;99.90;;;;;;5031823;28;20465;-65
2022/04/17 01:41:54;;;;;;;43.17;20.48;;;7.40;99.90;;;;;;5032244;28;20033;-65
2022/04/17 01:44:21;;;;;;;43.88;20.35;;;7.40;99.90;;;;;;5032420;28;20028;-66
2022/04/17 01:46:48;;;;;;;44.67;20.08;;;7.50;99.90;;;;;;5030840;28;20463;-65
2022/04/17 01:49:17;;;;;;;41.60;19.13;;;7.50;99.90;;;;;;5023345;28;20030;-66
2022/04/17 01:51:45;;;;;;;40.17;19.73;;;7.40;99.90;;;;;;5013956;28;20060;-65
2022/04/17 01:54:13;;;;;;;38.53;19.58;;;7.40;99.90;;;;;;5028327;28;20427;-65
2022/04/17 01:56:40;;;;;;;40.05;19.33;;;7.30;99.90;;;;;;5028726;28;20029;-65
2022/04/17 01:59:07;;;;;;;42.85;20.48;;;7.20;99.90;;;;;;5027980;28;20025;-65
2022/04/17 02:01:34;;;;;;;45.53;20.75;;;7.20;99.90;;;;;;5028476;28;20029;-65
2022/04/17 02:04:01;;;;;;;40.25;20.00;;;7.10;99.90;;;;;;5029224;28;20235;-65
2022/04/17 02:06:26;;;;;;;41.83;20.77;;;7.10;99.90;;;;;;5031816;28;20029;-65
2022/04/17 02:08:52;;;;;;;36.42;20.30;;;7.20;99.90;;;;;;5031339;28;20045;-65
2022/04/17 02:11:23;;;;;;;38.95;20.13;;;7.10;99.90;;;;;;5031792;28;20112;-65
2022/04/17 02:13:49;;;;;;;39.90;19.63;;;7.10;99.90;;;;;;5031509;28;20171;-65
2022/04/17 02:16:19;;;;;;;48.95;22.08;;;7.10;99.90;;;;;;5031267;28;20104;-65
2022/04/17 02:18:48;;;;;;;42.83;21.67;;;7.00;99.90;;;;;;5031374;28;20028;-65
2022/04/17 02:21:15;;;;;;;43.80;21.42;;;7.00;99.90;;;;;;5031116;28;20485;-65
2022/04/17 02:23:43;;;;;;;43.00;21.60;;;7.00;99.90;;;;;;5031331;28;20032;-65
2022/04/17 02:26:10;;;;;;;48.85;21.70;;;7.00;99.90;;;;;;5026236;28;20037;-65
2022/04/17 02:28:40;;;;;;;44.72;21.38;;;6.90;99.90;;;;;;5011491;28;20116;-65
2022/04/17 02:31:07;;;;;;;40.75;21.05;;;6.90;99.90;;;;;;5011304;28;20405;-65
2022/04/17 02:33:33;;;;;;;45.58;20.88;;;6.90;99.90;;;;;;5011409;28;20069;-65
2022/04/17 02:35:59;;;;;;;46.88;21.70;;;6.90;99.90;;;;;;5011218;28;20560;-65
2022/04/17 02:38:25;;;;;;;47.03;21.67;;;6.80;99.90;;;;;;5011199;28;20113;-65
2022/04/17 02:40:52;;;;;;;44.20;21.70;;;6.80;99.90;;;;;;5011306;28;20041;-64
2022/04/17 02:43:18;;;;;;;45.00;20.15;;;6.80;99.90;;;;;;5011293;28;20434;-65
2022/04/17 02:45:44;;;;;;;48.35;21.38;;;6.80;99.90;;;;;;5009714;28;20026;-65
2022/04/17 02:48:09;;;;;;;42.45;20.42;;;6.80;99.90;;;;;;5007911;28;20026;-65
2022/04/17 02:50:35;;;;;;;44.28;21.05;;;6.80;99.90;;;;;;5007665;28;20064;-65
2022/04/17 02:53:01;;;;;;;43.78;21.55;;;6.70;99.90;;;;;;5007967;28;20120;-65
2022/04/17 02:55:27;;;;;;;44.47;22.08;;;6.70;99.90;;;;;;5008483;28;20057;-65
2022/04/17 02:57:54;;;;;;;47.13;20.42;;;6.60;99.90;;;;;;5011251;28;20061;-64
2022/04/17 03:00:21;;;;;;;44.78;19.58;;;6.60;99.90;;;;;;5010531;28;20092;-64
2022/04/17 03:05:37;;;;;;;51.40;22.23;;;6.70;99.90;;;;;;5010784;28;20474;-65
2022/04/17 03:08:07;;;;;;;45.80;20.13;;;6.70;99.90;;;;;;5010798;28;20036;-65
2022/04/17 03:10:46;;;;;;;39.03;20.17;;;6.60;99.90;;;;;;5013228;28;20029;-64
2022/04/17 03:13:12;;;;;;;42.33;20.25;;;6.60;99.90;;;;;;5010693;28;20065;-64
2022/04/17 03:15:38;;;;;;;45.20;22.35;;;6.50;99.90;;;;;;5010816;28;20104;-64
2022/04/17 03:18:08;;;;;;;45.83;19.83;;;6.40;99.90;;;;;;5010733;28;20025;-65
2022/04/17 03:20:34;;;;;;;48.55;20.88;;;6.40;99.90;;;;;;5010883;28;20034;-64
2022/04/17 03:23:00;;;;;;;48.03;21.42;;;6.40;99.90;;;;;;5026084;28;20048;-64
2022/04/17 03:25:27;;;;;;;46.95;21.48;;;6.40;99.90;;;;;;5030281;28;20050;-64
2022/04/17 03:27:53;;;;;;;44.95;19.88;;;6.40;99.90;;;;;;5030251;28;20079;-64
2022/04/17 03:30:19;;;;;;;43.90;21.10;;;6.40;99.90;;;;;;5030207;28;20025;-64
2022/04/17 03:32:49;;;;;;;42.33;19.85;;;6.40;99.90;;;;;;5030377;28;20109;-64
2022/04/17 03:35:16;;;;;;;45.67;20.52;;;6.40;99.90;;;;;;5030605;28;20036;-64
2022/04/17 03:37:42;;;;;;;39.95;17.77;;;6.40;99.90;;;;;;5029935;28;20522;-65
2022/04/17 03:40:13;;;;;;;40.42;18.58;;;6.40;99.90;;;;;;5029986;28;20037;-64
2022/04/17 03:42:39;;;;;;;40.70;19.35;;;6.30;99.90;;;;;;5030362;28;20516;-65
2022/04/17 03:45:06;;;;;;;38.75;18.67;;;6.30;99.90;;;;;;5030041;28;20060;-64
2022/04/17 03:47:35;;;;;;;37.80;16.98;;;6.30;99.90;;;;;;5029973;28;20030;-64
2022/04/17 03:50:03;;;;;;;38.83;17.52;;;6.20;99.90;;;;;;5030016;28;20106;-65
2022/04/17 03:52:40;;;;;;;38.85;17.13;;;6.10;99.90;;;;;;5029663;28;20041;-65
2022/04/17 03:55:07;;;;;;;36.60;17.25;;;6.10;99.90;;;;;;5022944;28;20152;-65
2022/04/17 03:57:33;;;;;;;30.92;17.27;;;6.00;99.90;;;;;;5017512;28;20040;-64
2022/04/17 03:59:58;;;;;;;37.08;17.52;;;6.00;99.90;;;;;;5009944;28;20388;-64
2022/04/17 04:02:25;;;;;;;36.35;17.30;;;6.00;99.90;;;;;;5010087;28;20041;-64
2022/04/17 04:04:50;;;;;;;35.72;17.85;;;6.00;99.90;;;;;;5009908;28;20109;-64
2022/04/17 04:07:16;;;;;;;39.58;18.70;;;6.00;99.90;;;;;;5009776;28;20168;-65
2022/04/17 04:09:42;;;;;;;40.95;18.92;;;5.90;99.90;;;;;;5009776;28;20057;-65
2022/04/17 04:12:08;;;;;;;48.95;20.45;;;5.90;99.90;;;;;;5010029;28;20078;-65
2022/04/17 04:14:33;;;;;;;38.30;17.83;;;5.90;99.90;;;;;;5009805;28;20034;-65
2022/04/17 04:16:59;;;;;;;41.45;19.05;;;5.80;99.90;;;;;;5007536;28;20018;-65
2022/04/17 04:19:25;;;;;;;42.50;19.52;;;5.90;99.90;;;;;;5007086;28;20049;-65
2022/04/17 04:21:51;;;;;;;47.28;20.88;;;5.80;99.90;;;;;;5016703;28;20041;-64
2022/04/17 04:24:19;;;;;;;48.25;21.52;;;5.80;99.90;;;;;;5033031;28;20239;-64
2022/04/17 04:28:32;;;;;;;53.70;22.85;;;5.80;99.90;;;;;;5017868;28;20041;-64
2022/04/17 04:29:33;;;;;;;49.60;21.20;;;5.90;99.90;;;;;;5013709;28;20037;-64
2022/04/17 04:31:59;;;;;;;48.88;22.90;;;6.00;99.90;;;;;;5011297;28;20021;-65
2022/04/17 04:34:25;;;;;;;45.70;21.67;;;6.00;99.90;;;;;;5010619;28;20032;-65
2022/04/17 04:36:50;;;;;;;43.67;20.88;;;6.00;99.90;;;;;;5010140;28;20076;-65
2022/04/17 04:39:16;;;;;;;47.28;20.30;;;6.00;99.90;;;;;;5012942;28;20026;-65
2022/04/17 04:41:41;;;;;;;41.25;19.15;;;6.00;99.90;;;;;;5013371;28;20046;-65
2022/04/17 04:44:07;;;;;;;44.70;20.55;;;6.00;99.90;;;;;;5013484;28;20032;-65
2022/04/17 04:46:32;;;;;;;40.53;18.90;;;5.90;99.90;;;;;;5012133;28;20029;-64
2022/04/17 04:51:42;;;;;;;39.15;18.92;;;5.80;99.90;;;;;;5013364;28;20453;-65
2022/04/17 04:54:08;;;;;;;34.22;17.17;;;5.80;99.90;;;;;;5013187;28;20496;-64
2022/04/17 04:56:34;;;;;;;39.05;18.17;;;5.80;99.90;;;;;;5013270;28;20030;-65
2022/04/17 04:59:00;;;;;;;36.75;17.20;;;5.70;99.90;;;;;;5013249;28;20079;-64
2022/04/17 05:01:25;;;;;;;40.55;18.52;;;5.70;99.90;;;;;;5010804;28;20042;-64
2022/04/17 05:03:51;;;;;;;42.47;18.48;;;5.70;99.90;;;;;;5009829;28;20518;-64
2022/04/17 05:06:17;;;;;;;35.25;16.17;;;5.70;99.90;;;;;;5009922;28;20519;-65
2022/04/17 05:08:43;;;;;;;35.30;16.50;;;5.70;99.90;;;;;;5009592;28;20057;-65
2022/04/17 05:11:09;;;;;;;37.70;18.60;;;5.60;99.90;;;;;;5009838;28;20068;-64
2022/04/17 05:13:35;;;;;;;40.47;18.10;;;5.60;99.90;;;;;;5009798;28;20025;-65
2022/04/17 05:16:01;;;;;;;41.38;18.95;;;5.60;99.90;;;;;;5010612;28;20034;-64
2022/04/17 05:18:27;;;;;;;49.28;20.15;;;5.60;99.90;;;;;;5012737;28;20036;-64
2022/04/17 05:20:54;;;;;;;44.05;19.13;;;5.60;99.90;;;;;;5015164;28;20029;-64
2022/04/17 05:23:25;;;;;;;40.67;19.15;;;5.70;99.90;;;;;;5030880;28;20064;-64
2022/04/17 05:25:53;;;;;;;40.10;18.88;;;5.70;99.90;;;;;;5031442;28;20079;-64
2022/04/17 05:28:19;;;;;;;47.85;20.20;;;5.80;99.90;;;;;;5029206;28;20607;-64
2022/04/17 05:30:45;;;;;;;49.28;21.02;;;5.80;99.90;;;;;;5029398;28;20382;-64
2022/04/17 05:33:11;;;;;;;43.75;20.70;;;5.90;99.90;;;;;;5031312;28;20112;-64
2022/04/17 05:35:37;;;;;;;52.17;21.27;;;5.90;99.90;;;;;;5032494;28;20053;-64
2022/04/17 05:38:04;;;;;;;50.78;21.30;;;6.00;99.90;;;;;;5031904;28;20029;-64
2022/04/17 05:40:33;;;;;;;42.38;20.23;;;6.10;99.90;;;;;;5031940;28;20034;-64
2022/04/17 05:43:00;;;;;;;49.72;21.33;;;6.20;99.90;;;;;;5032056;28;20025;-64
2022/04/17 05:45:26;;;;;;;47.42;20.95;;;6.30;99.90;;;;;;5032350;28;20029;-64
2022/04/17 05:47:52;;;;;;;50.08;20.67;;;6.40;99.90;;;;;;5032062;28;20365;-64
2022/04/17 05:50:18;;;;;;;46.42;20.83;;;6.40;99.90;;;;;;5031522;28;20040;-64
2022/04/17 05:52:44;;;;;;;43.72;21.20;;;6.50;99.90;;;;;;5028383;28;20021;-64
2022/04/17 05:55:11;;;;;;;44.33;19.73;;;6.60;99.90;;;;;;5029218;28;20032;-64
2022/04/17 05:57:36;;;;;;;43.92;19.77;;;6.70;99.90;;;;;;5031412;28;20462;-64
2022/04/17 06:00:08;;;;;;;34.40;17.40;;;6.70;99.90;;;;;;5031870;28;20175;-64
2022/04/17 06:02:35;;;;;;;33.00;15.57;;;6.80;99.90;;;;;;5032062;28;20117;-64
2022/04/17 06:05:03;;;;;;;38.53;17.67;;;6.80;99.90;;;;;;5031787;28;20124;-64
2022/04/17 06:07:29;;;;;;;38.05;17.70;;;6.80;99.90;;;;;;5031677;28;20075;-64
2022/04/17 06:09:55;;;;;;;39.20;18.48;;;6.80;99.90;;;;;;5031569;28;20147;-64
2022/04/17 06:12:21;;;;;;;42.40;19.17;;;6.80;99.90;;;;;;5030213;28;20715;-64
2022/04/17 06:14:47;;;;;;;41.58;18.30;;;6.90;99.90;;;;;;5028027;28;20108;-64
2022/04/17 06:17:12;;;;;;;40.00;19.10;;;7.00;99.90;;;;;;5029276;28;20469;-64
2022/04/17 06:19:38;;;;;;;44.45;19.17;;;7.00;99.90;;;;;;5031445;28;20032;-64
2022/04/17 06:22:04;;;;;;;49.35;20.92;;;7.00;99.90;;;;;;5027835;28;20476;-64
2022/04/17 06:24:30;;;;;;;53.97;23.30;;;7.20;99.90;;;;;;5008324;28;20060;-64
2022/04/17 06:26:56;;;;;;;45.20;21.92;;;7.20;99.90;;;;;;5008270;28;20030;-64
2022/04/17 06:29:22;;;;;;;48.30;21.50;;;7.40;99.90;;;;;;5008559;28;20029;-64
2022/04/17 06:31:47;;;;;;;49.03;21.98;;;7.50;99.90;;;;;;5009330;28;20037;-64
2022/04/17 06:34:13;;;;;;;46.70;20.90;;;7.60;99.90;;;;;;5011350;28;20029;-64
2022/04/17 06:36:39;;;;;;;44.75;20.63;;;7.70;99.90;;;;;;5011531;28;20038;-64
2022/04/17 06:39:05;;;;;;;44.50;20.35;;;7.90;99.90;;;;;;5011034;28;20690;-64
2022/04/17 06:41:31;;;;;;;39.45;18.63;;;8.10;99.90;;;;;;5011112;28;20373;-64
2022/04/17 06:43:57;;;;;;;41.22;20.88;;;8.20;99.90;;;;;;5010904;28;20037;-64
2022/04/17 06:46:22;;;;;;;36.30;17.63;;;8.30;99.90;;;;;;5026791;28;20034;-64
2022/04/17 06:48:48;;;;;;;35.70;17.85;;;8.40;99.90;;;;;;5031196;28;20017;-65
2022/04/17 06:51:14;;;;;;;36.17;18.30;;;8.50;99.90;;;;;;5030931;28;20034;-64
2022/04/17 06:53:40;;;;;;;39.50;18.52;;;8.60;99.90;;;;;;5030540;28;20337;-64
2022/04/17 06:56:07;;;;;;;43.42;20.08;;;8.70;99.90;;;;;;5030699;28;20067;-64
2022/04/17 06:58:33;;;;;;;41.40;20.63;;;8.90;99.90;;;;;;5030790;28;20064;-64
2022/04/17 07:00:59;;;;;;;45.35;21.42;;;9.20;99.90;;;;;;5029270;28;20512;-65
2022/04/17 07:03:25;;;;;;;42.78;20.55;;;9.70;99.90;;;;;;5027753;28;20053;-64
2022/04/17 07:05:51;;;;;;;44.08;20.50;;;10.30;99.90;;;;;;5027373;28;20032;-64
2022/04/17 07:08:16;;;;;;;39.80;19.73;;;10.90;99.90;;;;;;5029893;28;20026;-64
2022/04/17 07:10:42;;;;;;;40.85;20.90;;;11.40;99.90;;;;;;5030572;28;20100;-64
2022/04/17 07:13:11;;;;;;;43.53;20.35;;;11.90;99.90;;;;;;5029098;28;20373;-65
2022/04/17 07:15:37;;;;;;;38.60;19.98;;;12.50;99.90;;;;;;5030330;28;20072;-65
2022/04/17 07:18:03;;;;;;;37.40;19.25;;;13.10;99.90;;;;;;5030277;28;20029;-65
2022/04/17 07:20:30;;;;;;;36.67;19.45;;;13.70;98.10;;;;;;5027097;28;20060;-65
2022/04/17 07:22:55;;;;;;;38.22;19.80;;;14.20;96.80;;;;;;5015266;28;20068;-65
2022/04/17 07:25:21;;;;;;;34.28;19.35;;;14.60;94.50;;;;;;5010388;28;20096;-65
2022/04/17 07:27:49;;;;;;;36.35;20.27;;;15.10;92.20;;;;;;5010794;28;20384;-65
2022/04/17 07:30:24;;;;;;;33.08;18.65;;;15.60;91.50;;;;;;5010784;28;20034;-65
2022/04/17 07:32:51;;;;;;;30.48;18.58;;;16.10;87.20;;;;;;5010448;28;20198;-65
2022/04/17 07:35:18;;;;;;;31.00;18.92;;;16.40;83.40;;;;;;5010524;28;20017;-65
2022/04/17 07:37:55;;;;;;;31.73;18.77;;;16.60;82.30;;;;;;5010428;28;20026;-65
2022/04/17 07:40:27;;;;;;;32.47;18.88;;;16.90;82.70;;;;;;5010365;28;20104;-65
2022/04/17 07:42:54;;;;;;;29.60;18.23;;;16.90;81.30;;;;;;5010404;28;20492;-65
2022/04/17 07:45:20;;;;;;;30.40;19.25;;;17.20;84.10;;;;;;5010404;28;20025;-65
2022/04/17 07:47:47;;;;;;;31.70;19.38;;;17.40;83.20;;;;;;5010285;28;20101;-65
2022/04/17 07:50:15;;;;;;;32.50;18.88;;;17.90;79.90;;;;;;5010470;28;20098;-65
2022/04/17 07:52:42;;;;;;;28.20;18.35;;;18.00;73.60;;;;;;5008429;28;20120;-65
2022/04/17 07:55:09;;;;;;;27.20;17.58;;;18.20;71.60;;;;;;5009928;28;20513;-65
2022/04/17 08:00:21;;;;;;;23.80;15.63;;;18.50;63.40;;;;;;5010279;28;20029;-65
2022/04/17 08:02:55;;;;;;;25.95;15.45;;;18.50;61.50;;;;;;5010336;28;20056;-66
2022/04/17 08:05:24;;;;;;;20.60;13.30;;;18.90;58.40;;;;;;5010370;28;20030;-65
2022/04/17 08:07:51;;;;;;;25.77;16.48;;;18.80;52.70;;;;;;5009755;28;20060;-65
2022/04/17 08:10:17;;;;;;;25.10;16.48;;;18.90;62.00;;;;;;5010089;28;20036;-65
2022/04/17 08:12:44;;;;;;;20.20;12.25;;;19.60;55.80;;;;;;5010067;28;20026;-65
2022/04/17 08:15:10;;;;;;;19.52;10.70;;;19.30;48.80;;;;;;5010311;28;20025;-65
2022/04/17 08:17:35;;;;;;;16.10;9.50;;;19.70;44.60;;;;;;5010035;28;20040;-65
2022/04/17 08:20:01;;;;;;;10.80;7.50;;;20.20;40.60;;;;;;5010356;28;20037;-65
2022/04/17 08:22:27;;;;;;;8.18;6.20;;;20.60;30.50;;;;;;5009720;28;20033;-65
2022/04/17 08:24:53;;;;;;;7.07;5.13;;;20.70;27.30;;;;;;5011748;28;20085;-66
2022/04/17 08:27:18;;;;;;;7.35;5.68;;;20.90;27.00;;;;;;5009841;28;20050;-65
2022/04/17 08:29:44;;;;;;;6.57;3.30;;;21.10;25.90;;;;;;5009861;28;20073;-65
2022/04/17 08:32:10;;;;;;;3.97;2.50;;;20.60;22.90;;;;;;5009915;28;20049;-65
2022/04/17 08:34:35;;;;;;;4.78;3.03;;;20.90;19.40;;;;;;5009593;28;20446;-66
2022/04/17 08:37:01;;;;;;;2.53;2.33;;;21.40;19.10;;;;;;5009723;28;20369;-65
2022/04/17 08:39:27;;;;;;;3.08;2.47;;;21.50;16.10;;;;;;5010029;28;20116;-65
2022/04/17 08:41:54;;;;;;;4.72;2.30;;;21.90;16.30;;;;;;5009635;28;20546;-65
2022/04/17 08:44:22;;;;;;;3.17;2.67;;;22.90;15.60;;;;;;5009693;28;20061;-65
2022/04/17 08:46:47;;;;;;;3.33;2.53;;;22.40;14.10;;;;;;5012110;28;20061;-65
2022/04/17 08:49:13;;;;;;;4.25;2.60;;;22.20;14.70;;;;;;5022788;28;20060;-65
2022/04/17 08:51:40;;;;;;;2.92;2.55;;;21.60;14.60;;;;;;5029025;28;20530;-66
2022/04/17 08:54:06;;;;;;;4.53;2.72;;;22.10;14.90;;;;;;5029153;28;20028;-65
2022/04/17 08:56:34;;;;;;;2.60;2.15;;;22.30;16.00;;;;;;5021364;28;20131;-64
2022/04/17 08:59:00;;;;;;;2.88;2.30;;;22.00;14.30;;;;;;5009785;28;20461;-65
2022/04/17 09:01:26;;;;;;;2.63;2.42;;;21.80;14.40;;;;;;5009558;28;20038;-64
2022/04/17 09:03:52;;;;;;;4.13;2.42;;;21.80;14.10;;;;;;5009683;28;20041;-64
2022/04/17 09:06:21;;;;;;;4.47;2.72;;;22.80;13.60;;;;;;5009442;28;20105;-64
2022/04/17 09:09:00;;;;;;;3.53;2.05;;;24.10;12.10;;;;;;5012622;28;20030;-65
2022/04/17 09:11:31;;;;;;;2.75;2.42;;;25.30;10.80;;;;;;5012905;28;20036;-65
2022/04/17 09:13:59;;;;;;;3.53;2.28;;;25.80;10.70;;;;;;5012861;28;20742;-66
2022/04/17 09:16:30;;;;;;;5.28;2.42;;;26.40;10.30;;;;;;5015396;28;20477;-65
2022/04/17 09:18:57;;;;;;;3.42;2.60;;;26.10;8.90;;;;;;5013039;28;20050;-65
2022/04/17 09:21:32;;;;;;;4.43;2.63;;;25.60;8.70;;;;;;5014896;28;20608;-65
2022/04/17 09:24:21;;;;;;;3.38;2.83;;;26.00;9.20;;;;;;5013045;28;20041;-65
2022/04/17 09:26:52;;;;;;;3.60;3.00;;;25.30;8.80;;;;;;5012572;28;20030;-70
2022/04/17 09:29:19;;;;;;;4.70;2.50;;;24.80;10.00;;;;;;5012458;28;20022;-64
2022/04/17 09:31:46;;;;;;;5.68;3.17;;;25.20;10.50;;;;;;5012637;28;20109;-65
2022/04/17 09:34:11;;;;;;;4.03;2.72;;;26.10;9.60;;;;;;5012525;28;20025;-67
2022/04/17 09:36:38;;;;;;;4.45;2.60;;;26.30;9.10;;;;;;5012451;28;20504;-67
2022/04/17 09:39:14;;;;;;;4.10;3.13;;;26.40;8.80;;;;;;5012284;28;20034;-67
2022/04/17 09:42:02;;;;;;;3.92;3.00;;;25.70;8.20;;;;;;5012616;28;20041;-66
2022/04/17 09:44:37;;;;;;;4.53;2.85;;;27.50;8.70;;;;;;5012254;28;20899;-63
2022/04/17 09:47:06;;;;;;;2.53;2.22;;;28.10;8.90;;;;;;5012204;28;20026;-66
2022/04/17 09:49:56;;;;;;;4.03;3.10;;;28.00;8.10;;;;;;5012347;28;20022;-66
2022/04/17 09:52:26;;;;;;;4.67;2.90;;;28.50;7.50;;;;;;5022127;28;20021;-66
2022/04/17 09:54:52;;;;;;;5.55;3.03;;;29.00;6.90;;;;;;5031821;28;20108;-67
2022/04/17 09:57:55;;;;;;;3.17;2.80;;;29.10;6.40;;;;;;5031577;28;20030;-68
2022/04/17 10:00:21;;;;;;;2.67;2.45;;;28.90;6.50;;;;;;5022079;28;20038;-67
2022/04/17 10:02:47;;;;;;;4.25;2.55;;;29.20;7.20;;;;;;5031712;28;20421;-67
2022/04/17 10:05:15;;;;;;;3.97;2.80;;;28.90;6.50;;;;;;5031778;28;20117;-68
2022/04/17 10:07:43;;;;;;;2.67;2.40;;;28.50;5.70;;;;;;5031588;28;20044;-69
2022/04/17 10:10:11;;;;;;;3.42;2.90;;;29.80;6.30;;;;;;5031769;28;20053;-66
2022/04/17 10:12:39;;;;;;;3.10;2.55;;;29.30;5.80;;;;;;5031750;28;20041;-67
2022/04/17 10:15:06;;;;;;;3.97;2.75;;;30.30;6.90;;;;;;5031494;28;20066;-67
2022/04/17 10:17:38;;;;;;;3.38;2.65;;;30.30;5.50;;;;;;5031448;28;20057;-67
2022/04/17 10:20:08;;;;;;;4.00;2.60;;;27.40;5.50;;;;;;5030958;28;20033;-67
2022/04/17 10:22:34;;;;;;;4.47;2.70;;;26.00;6.60;;;;;;5031066;28;20053;-66
2022/04/17 10:25:02;;;;;;;3.45;3.15;;;25.10;8.20;;;;;;5030481;28;20045;-67
2022/04/17 10:27:43;;;;;;;4.50;2.63;;;24.70;9.20;;;;;;5031539;28;20112;-67
2022/04/17 10:30:14;;;;;;;3.25;2.85;;;25.50;8.40;;;;;;5019137;28;20022;-67
2022/04/17 10:32:55;;;;;;;5.53;3.22;;;26.60;9.10;;;;;;5011400;28;20021;-68
2022/04/17 10:35:28;;;;;;;3.35;2.95;;;28.40;8.70;;;;;;5011530;28;20054;-67
2022/04/17 10:38:24;;;;;;;6.45;3.13;;;29.10;6.90;;;;;;5011345;28;20026;-67
2022/04/17 10:40:59;;;;;;;5.47;2.90;;;30.00;6.30;;;;;;5011052;28;20103;-68
2022/04/17 10:43:54;;;;;;;6.07;3.03;;;28.90;5.80;;;;;;5008085;28;20034;-68
2022/04/17 10:46:21;;;;;;;4.63;3.50;;;28.20;6.60;;;;;;4999696;28;20038;-69
2022/04/17 10:48:55;;;;;;;3.70;3.08;;;27.80;6.80;;;;;;5008188;28;20448;-69
2022/04/17 10:51:26;;;;;;;4.53;3.55;;;28.60;7.40;;;;;;5007640;28;20030;-68
2022/04/17 10:54:04;;;;;;;3.70;2.85;;;27.90;6.60;;;;;;5008016;28;20018;-68
2022/04/17 10:56:37;;;;;;;4.32;3.33;;;28.40;7.60;;;;;;5008521;28;20688;-69
2022/04/17 10:59:14;;;;;;;4.03;3.13;;;28.20;7.00;;;;;;5008363;28;20037;-68
2022/04/17 11:01:45;;;;;;;5.80;2.97;;;27.40;7.90;;;;;;5007664;28;20165;-69
2022/04/17 11:04:50;;;;;;;5.32;3.38;;;28.30;7.90;;;;;;5007732;28;20516;-69
2022/04/17 11:07:15;;;;;;;4.43;3.38;;;29.80;7.50;;;;;;5008387;28;20403;-68
2022/04/17 11:09:46;;;;;;;5.03;3.45;;;30.80;6.20;;;;;;5009880;28;20026;-68
2022/04/17 11:12:17;;;;;;;3.67;2.88;;;32.20;5.80;;;;;;5007698;28;20388;-67
2022/04/17 11:15:01;;;;;;;5.07;3.10;;;32.00;6.40;;;;;;5008224;28;20517;-68
2022/04/17 11:17:32;;;;;;;3.75;3.30;;;32.20;6.50;;;;;;5007719;28;20058;-69
2022/04/17 11:19:59;;;;;;;4.32;2.80;;;31.00;7.20;;;;;;5007799;28;20022;-68
2022/04/17 11:22:37;;;;;;;4.57;2.90;;;31.90;6.10;;;;;;5018158;28;20037;-68
2022/04/17 11:25:06;;;;;;;6.55;2.83;;;32.10;6.20;;;;;;5027087;28;20404;-70
2022/04/17 11:27:31;;;;;;;3.40;2.55;;;31.00;6.50;;;;;;5027242;28;20083;-68
2022/04/17 11:29:58;;;;;;;4.72;2.85;;;30.60;7.10;;;;;;5026968;28;20034;-69
2022/04/17 11:32:26;;;;;;;5.68;2.72;;;30.10;7.10;;;;;;5026318;28;20432;-71
2022/04/17 11:34:52;;;;;;;3.65;2.30;;;30.10;6.80;;;;;;5026946;28;20109;-67
2022/04/17 11:37:26;;;;;;;4.55;2.40;;;32.00;7.00;;;;;;5026916;28;20468;-71
2022/04/17 11:39:53;;;;;;;4.00;2.50;;;32.60;6.60;;;;;;5027150;28;20095;-70
2022/04/17 11:42:19;;;;;;;3.45;3.00;;;32.20;6.50;;;;;;5027050;28;20037;-72
2022/04/17 11:44:47;;;;;;;4.18;2.50;;;31.70;6.30;;;;;;5026966;28;20048;-68
2022/04/17 11:47:14;;;;;;;3.15;2.15;;;31.20;5.40;;;;;;5026966;28;20033;-67
2022/04/17 11:49:41;;;;;;;5.00;3.10;;;32.30;7.30;;;;;;5026879;28;20572;-66
2022/04/17 11:52:10;;;;;;;5.57;2.80;;;31.50;6.30;;;;;;5026467;28;20404;-66
2022/04/17 11:54:36;;;;;;;3.80;2.60;;;30.60;7.80;;;;;;5026754;28;20030;-66
2022/04/17 11:57:01;;;;;;;4.60;2.85;;;32.00;7.30;;;;;;5026738;28;20094;-67
2022/04/17 11:59:27;;;;;;;3.13;2.67;;;32.30;7.60;;;;;;5026846;28;20124;-67
2022/04/17 12:02:14;;;;;;;4.70;2.80;;;32.20;6.20;;;;;;5026698;28;20077;-67
2022/04/17 12:04:41;;;;;;;4.53;2.85;;;31.50;6.30;;;;;;5017682;28;20030;-67
2022/04/17 12:07:08;;;;;;;4.65;3.08;;;30.90;7.60;;;;;;5004335;28;20056;-67
2022/04/17 12:09:34;;;;;;;4.15;2.72;;;30.60;6.30;;;;;;5014055;28;20084;-65
2022/04/17 12:12:00;;;;;;;5.28;3.33;;;30.50;8.80;;;;;;5005456;28;20026;-64
2022/04/17 12:14:32;;;;;;;5.20;2.75;;;30.20;8.30;;;;;;5006056;28;20117;-63
2022/04/17 12:16:58;;;;;;;3.47;3.03;;;30.90;8.70;;;;;;5007138;28;20026;-67
2022/04/17 12:19:29;;;;;;;5.90;3.97;;;31.20;7.50;;;;;;5007013;28;20107;-67
2022/04/17 12:21:55;;;;;;;6.07;3.45;;;31.40;7.70;;;;;;5006943;28;20038;-67
2022/04/17 12:24:27;;;;;;;4.78;3.40;;;31.30;7.10;;;;;;5006235;28;20516;-68
2022/04/17 12:26:54;;;;;;;4.75;3.08;;;30.40;6.60;;;;;;5009137;28;20033;-68
2022/04/17 12:29:20;;;;;;;4.25;2.95;;;31.60;8.20;;;;;;5006629;28;20026;-67
2022/04/17 12:31:45;;;;;;;4.68;3.33;;;32.00;7.40;;;;;;5006401;28;20022;-66
2022/04/17 12:34:16;;;;;;;5.45;3.00;;;31.30;6.60;;;;;;5006780;28;20216;-65
2022/04/17 12:36:44;;;;;;;4.68;3.00;;;29.50;7.00;;;;;;5006579;28;20033;-65
2022/04/17 12:39:10;;;;;;;4.15;3.08;;;28.90;7.90;;;;;;5006470;28;20550;-65
2022/04/17 12:41:48;;;;;;;4.50;3.42;;;29.70;8.50;;;;;;5007162;28;20041;-64
2022/04/17 12:44:13;;;;;;;4.70;3.60;;;29.80;8.00;;;;;;5010731;28;20037;-64
2022/04/17 12:46:45;;;;;;;4.25;2.85;;;29.10;7.70;;;;;;5010209;28;20025;-64
2022/04/17 12:49:19;;;;;;;6.55;3.22;;;30.00;7.60;;;;;;5010203;28;20062;-64
2022/04/17 12:52:01;;;;;;;4.30;3.10;;;28.40;7.10;;;;;;5009768;28;20176;-64
2022/04/17 12:54:31;;;;;;;4.13;3.00;;;29.00;7.00;;;;;;5007607;28;20495;-64
2022/04/17 12:57:08;;;;;;;5.28;3.08;;;28.40;7.60;;;;;;5010383;28;20022;-65
2022/04/17 12:59:40;;;;;;;5.18;3.25;;;27.80;7.60;;;;;;5010357;28;20084;-64